sensor_id;sensor_type;location;lat;lon;timestamp;pressure;altitude;pressure_sealevel;temperature;humidity
2178;BME280;1095;50.992;6.798;2022-09-04T00:01:02;100706.16;;;16.57;100.00
2178;BME280;1095;50.992;6.798;2022-09-04T00:03:40;100707.75;;;16.52;100.00
2178;BME280;1095;50.992;6.798;2022-09-04T00:06:16;100709.59;;;16.51;100.00
2178;BME280;1095;50.992;6.798;2022-09-04T00:11:45;100720.53;;;16.48;100.00
2178;BME280;1095;50.992;6.798;2022-09-04T00:14:17;100712.81;;;16.47;100.00
2178;BME280;1095;50.992;6.798;2022-09-04T00:16:49;100718.47;;;16.44;100.00
2178;BME280;1095;50.992;6.798;2022-09-04T00:19:24;100719.47;;;16.43;100.00
2178;BME280;1095;50.992;6.798;2022-09-04T00:21:56;100731.03;;;16.42;100.00
2178;BME280;1095;50.992;6.798;2022-09-04T00:24:27;100728.78;;;16.39;100.00
2178;BME280;1095;50.992;6.798;2022-09-04T00:27:01;100728.78;;;16.39;100.00
2178;BME280;1095;50.992;6.798;2022-09-04T00:29:39;100736.72;;;16.39;100.00
2178;BME280;1095;50.992;6.798;2022-09-04T00:32:13;100733.94;;;16.47;100.00
2178;BME280;1095;50.992;6.798;2022-09-04T00:34:59;100731.03;;;16.42;100.00
2178;BME280;1095;50.992;6.798;2022-09-04T00:37:32;100734.19;;;16.31;100.00
2178;BME280;1095;50.992;6.798;2022-09-04T00:40:06;100741.56;;;16.35;100.00
2178;BME280;1095;50.992;6.798;2022-09-04T00:42:48;100747.66;;;16.36;100.00
2178;BME280;1095;50.992;6.798;2022-09-04T00:45:27;100747.66;;;16.36;100.00
2178;BME280;1095;50.992;6.798;2022-09-04T00:48:20;100745.19;;;16.34;100.00
2178;BME280;1095;50.992;6.798;2022-09-04T00:51:19;100745.75;;;16.30;100.00
2178;BME280;1095;50.992;6.798;2022-09-04T00:54:17;100750.03;;;16.31;100.00
2178;BME280;1095;50.992;6.798;2022-09-04T00:57:24;100741.38;;;16.15;100.00
2178;BME280;1095;50.992;6.798;2022-09-04T01:00:06;100747.84;;;16.13;100.00
2178;BME280;1095;50.992;6.798;2022-09-04T01:05:37;100764.84;;;16.04;100.00
2178;BME280;1095;50.992;6.798;2022-09-04T01:08:14;100761.19;;;16.05;100.00
2178;BME280;1095;50.992;6.798;2022-09-04T01:10:50;100763.88;;;16.11;100.00
2178;BME280;1095;50.992;6.798;2022-09-04T01:13:30;100763.66;;;16.06;100.00
2178;BME280;1095;50.992;6.798;2022-09-04T01:16:06;100765.41;;;15.99;100.00
2178;BME280;1095;50.992;6.798;2022-09-04T01:18:41;100763.13;;;15.96;100.00
2178;BME280;1095;50.992;6.798;2022-09-04T01:21:21;100769.16;;;15.90;100.00
2178;BME280;1095;50.992;6.798;2022-09-04T01:26:54;100772.16;;;15.87;100.00
2178;BME280;1095;50.992;6.798;2022-09-04T01:29:29;100775.44;;;15.89;100.00
2178;BME280;1095;50.992;6.798;2022-09-04T01:32:05;100778.63;;;15.84;100.00
2178;BME280;1095;50.992;6.798;2022-09-04T01:34:40;100778.63;;;15.84;100.00
2178;BME280;1095;50.992;6.798;2022-09-04T01:37:19;100777.81;;;15.84;100.00
2178;BME280;1095;50.992;6.798;2022-09-04T01:39:59;100779.19;;;15.80;100.00
2178;BME280;1095;50.992;6.798;2022-09-04T01:42:33;100776.56;;;15.80;100.00
2178;BME280;1095;50.992;6.798;2022-09-04T01:45:02;100775.38;;;15.82;100.00
2178;BME280;1095;50.992;6.798;2022-09-04T01:47:33;100785.72;;;15.84;100.00
2178;BME280;1095;50.992;6.798;2022-09-04T01:50:07;100783.91;;;15.84;100.00
2178;BME280;1095;50.992;6.798;2022-09-04T01:52:40;100783.09;;;15.84;100.00
2178;BME280;1095;50.992;6.798;2022-09-04T01:55:18;100795.03;;;15.80;100.00
2178;BME280;1095;50.992;6.798;2022-09-04T01:57:57;100792.19;;;15.81;100.00
2178;BME280;1095;50.992;6.798;2022-09-04T02:00:32;100791.75;;;15.78;100.00
2178;BME280;1095;50.992;6.798;2022-09-04T02:03:05;100795.03;;;15.80;100.00
2178;BME280;1095;50.992;6.798;2022-09-04T02:05:45;100798.78;;;15.71;100.00
2178;BME280;1095;50.992;6.798;2022-09-04T02:08:31;100800.59;;;15.70;100.00
2178;BME280;1095;50.992;6.798;2022-09-04T02:11:06;100810.69;;;15.67;100.00
2178;BME280;1095;50.992;6.798;2022-09-04T02:13:45;100813.47;;;15.58;100.00
2178;BME280;1095;50.992;6.798;2022-09-04T02:16:22;100813.78;;;15.55;100.00
2178;BME280;1095;50.992;6.798;2022-09-04T02:19:01;100811.53;;;15.52;100.00
2178;BME280;1095;50.992;6.798;2022-09-04T02:21:32;100822.72;;;15.54;100.00
2178;BME280;1095;50.992;6.798;2022-09-04T02:24:09;100811.69;;;15.51;100.00
2178;BME280;1095;50.992;6.798;2022-09-04T02:26:43;100815.72;;;15.47;100.00
2178;BME280;1095;50.992;6.798;2022-09-04T02:29:22;100814.06;;;15.46;100.00
2178;BME280;1095;50.992;6.798;2022-09-04T02:31:53;100810.63;;;15.45;100.00
2178;BME280;1095;50.992;6.798;2022-09-04T02:34:28;100812.44;;;15.45;100.00
2178;BME280;1095;50.992;6.798;2022-09-04T02:37:02;100821.34;;;15.44;100.00
2178;BME280;1095;50.992;6.798;2022-09-04T02:39:44;100825.63;;;15.45;100.00
2178;BME280;1095;50.992;6.798;2022-09-04T02:42:19;100815.78;;;15.39;100.00
2178;BME280;1095;50.992;6.798;2022-09-04T02:45:07;100809.78;;;15.30;100.00
2178;BME280;1095;50.992;6.798;2022-09-04T02:47:45;100802.59;;;15.24;100.00
2178;BME280;1095;50.992;6.798;2022-09-04T02:50:31;100809.78;;;15.30;100.00
2178;BME280;1095;50.992;6.798;2022-09-04T02:53:09;100799.16;;;15.23;100.00
2178;BME280;1095;50.992;6.798;2022-09-04T02:55:51;100820.34;;;15.30;100.00
2178;BME280;1095;50.992;6.798;2022-09-04T02:58:31;100828.53;;;15.35;100.00
2178;BME280;1095;50.992;6.798;2022-09-04T03:01:10;100832.16;;;15.34;100.00
2178;BME280;1095;50.992;6.798;2022-09-04T03:03:43;100831.34;;;15.34;100.00
2178;BME280;1095;50.992;6.798;2022-09-04T03:06:18;100835.16;;;15.31;100.00
2178;BME280;1095;50.992;6.798;2022-09-04T03:08:52;100839.44;;;15.32;100.00
2178;BME280;1095;50.992;6.798;2022-09-04T03:11:29;100843.72;;;15.33;100.00
2178;BME280;1095;50.992;6.798;2022-09-04T03:14:01;100842.25;;;15.31;100.00
2178;BME280;1095;50.992;6.798;2022-09-04T03:16:37;100845.44;;;15.26;100.00
2178;BME280;1095;50.992;6.798;2022-09-04T03:19:12;100850.41;;;15.21;100.00
2178;BME280;1095;50.992;6.798;2022-09-04T03:21:45;100863.16;;;15.17;100.00
2178;BME280;1095;50.992;6.798;2022-09-04T03:24:21;100855.88;;;15.19;100.00
2178;BME280;1095;50.992;6.798;2022-09-04T03:26:51;100855.69;;;15.21;100.00
2178;BME280;1095;50.992;6.798;2022-09-04T03:29:25;100851.78;;;15.17;100.00
2178;BME280;1095;50.992;6.798;2022-09-04T03:32:06;100861.97;;;15.20;100.00
2178;BME280;1095;50.992;6.798;2022-09-04T03:34:40;100851.41;;;15.20;100.00
2178;BME280;1095;50.992;6.798;2022-09-04T03:37:29;100862.16;;;15.18;100.00
2178;BME280;1095;50.992;6.798;2022-09-04T03:40:15;100853.97;;;15.13;100.00
2178;BME280;1095;50.992;6.798;2022-09-04T03:42:53;100864.13;;;15.16;100.00
2178;BME280;1095;50.992;6.798;2022-09-04T03:45:30;100867.59;;;15.17;100.00
2178;BME280;1095;50.992;6.798;2022-09-04T03:48:14;100871.22;;;15.16;100.00
2178;BME280;1095;50.992;6.798;2022-09-04T03:50:50;100860.22;;;15.12;100.00
2178;BME280;1095;50.992;6.798;2022-09-04T03:53:28;100870.97;;;15.11;100.00
2178;BME280;1095;50.992;6.798;2022-09-04T03:56:23;100871.06;;;15.03;100.00
2178;BME280;1095;50.992;6.798;2022-09-04T03:59:00;100882.31;;;14.97;100.00
2178;BME280;1095;50.992;6.798;2022-09-04T04:01:37;100887.75;;;14.95;100.00
2178;BME280;1095;50.992;6.798;2022-09-04T04:04:30;100887.09;;;14.93;100.00
2178;BME280;1095;50.992;6.798;2022-09-04T04:07:08;100893.38;;;14.92;100.00
2178;BME280;1095;50.992;6.798;2022-09-04T04:09:52;100888.91;;;14.92;100.00
2178;BME280;1095;50.992;6.798;2022-09-04T04:12:35;100894.38;;;14.91;100.00
2178;BME280;1095;50.992;6.798;2022-09-04T04:15:12;100885.66;;;14.90;100.00
2178;BME280;1095;50.992;6.798;2022-09-04T04:20:45;100902.81;;;14.86;100.00
2178;BME280;1095;50.992;6.798;2022-09-04T04:23:34;100898.72;;;14.84;100.00
2178;BME280;1095;50.992;6.798;2022-09-04T04:26:09;100898.06;;;14.82;100.00
2178;BME280;1095;50.992;6.798;2022-09-04T04:28:57;100889.50;;;14.80;100.00
2178;BME280;1095;50.992;6.798;2022-09-04T04:31:43;100888.41;;;14.74;100.00
2178;BME280;1095;50.992;6.798;2022-09-04T04:34:39;100911.59;;;14.79;100.00
2178;BME280;1095;50.992;6.798;2022-09-04T04:37:21;100910.59;;;14.80;100.00
2178;BME280;1095;50.992;6.798;2022-09-04T04:39:58;100912.41;;;14.79;100.00
2178;BME280;1095;50.992;6.798;2022-09-04T04:42:31;100921.31;;;14.78;100.00
2178;BME280;1095;50.992;6.798;2022-09-04T04:45:12;100913.56;;;14.77;100.00
2178;BME280;1095;50.992;6.798;2022-09-04T04:48:21;100915.09;;;14.71;100.00
2178;BME280;1095;50.992;6.798;2022-09-04T04:51:04;100916.91;;;14.71;100.00
2178;BME280;1095;50.992;6.798;2022-09-04T04:53:38;100921.34;;;14.70;100.00
2178;BME280;1095;50.992;6.798;2022-09-04T04:56:13;100917.81;;;14.63;100.00
2178;BME280;1095;50.992;6.798;2022-09-04T04:58:48;100928.91;;;14.73;100.00
2178;BME280;1095;50.992;6.798;2022-09-04T05:01:27;100935.53;;;14.69;100.00
2178;BME280;1095;50.992;6.798;2022-09-04T05:04:09;100935.00;;;14.74;100.00
2178;BME280;1095;50.992;6.798;2022-09-04T05:06:46;100936.16;;;14.71;100.00
2178;BME280;1095;50.992;6.798;2022-09-04T05:09:21;100945.53;;;14.74;100.00
2178;BME280;1095;50.992;6.798;2022-09-04T05:11:55;100949.47;;;14.78;100.00
2178;BME280;1095;50.992;6.798;2022-09-04T05:14:31;100952.91;;;14.78;100.00
2178;BME280;1095;50.992;6.798;2022-09-04T05:17:05;100955.53;;;14.78;100.00
2178;BME280;1095;50.992;6.798;2022-09-04T05:19:42;100967.38;;;14.82;100.00
2178;BME280;1095;50.992;6.798;2022-09-04T05:22:14;100964.03;;;14.88;100.00
2178;BME280;1095;50.992;6.798;2022-09-04T05:24:51;100974.22;;;14.91;100.00
2178;BME280;1095;50.992;6.798;2022-09-04T05:27:44;100977.88;;;14.90;100.00
2178;BME280;1095;50.992;6.798;2022-09-04T05:30:17;100977.69;;;14.92;100.00
2178;BME280;1095;50.992;6.798;2022-09-04T05:32:52;100984.91;;;14.98;100.00
2178;BME280;1095;50.992;6.798;2022-09-04T05:35:30;100983.03;;;15.07;100.00
2178;BME280;1095;50.992;6.798;2022-09-04T05:38:02;100986.22;;;15.17;100.00
2178;BME280;1095;50.992;6.798;2022-09-04T05:40:48;100986.03;;;15.18;100.00
2178;BME280;1095;50.992;6.798;2022-09-04T05:43:29;100986.63;;;15.28;100.00
2178;BME280;1095;50.992;6.798;2022-09-04T05:46:04;100989.19;;;15.37;100.00
2178;BME280;1095;50.992;6.798;2022-09-04T05:48:40;100993.56;;;15.44;100.00
2178;BME280;1095;50.992;6.798;2022-09-04T05:51:44;101000.25;;;15.55;100.00
2178;BME280;1095;50.992;6.798;2022-09-04T05:54:32;101001.09;;;15.70;100.00
2178;BME280;1095;50.992;6.798;2022-09-04T05:57:12;101006.81;;;15.74;100.00
2178;BME280;1095;50.992;6.798;2022-09-04T06:00:01;101008.47;;;15.75;100.00
2178;BME280;1095;50.992;6.798;2022-09-04T06:02:44;101014.66;;;15.82;100.00
2178;BME280;1095;50.992;6.798;2022-09-04T06:05:35;101000.47;;;15.83;100.00
2178;BME280;1095;50.992;6.798;2022-09-04T06:08:15;101005.47;;;15.92;100.00
2178;BME280;1095;50.992;6.798;2022-09-04T06:10:57;101005.59;;;15.99;100.00
2178;BME280;1095;50.992;6.798;2022-09-04T06:13:52;101009.91;;;16.21;100.00
2178;BME280;1095;50.992;6.798;2022-09-04T06:16:40;101020.78;;;16.77;100.00
2178;BME280;1095;50.992;6.798;2022-09-04T06:19:31;101016.38;;;17.76;100.00
2178;BME280;1095;50.992;6.798;2022-09-04T06:28:13;101022.22;;;19.41;90.41
2178;BME280;1095;50.992;6.798;2022-09-04T06:30:52;101014.50;;;19.53;89.68
2178;BME280;1095;50.992;6.798;2022-09-04T06:33:43;101023.63;;;19.97;87.42
2178;BME280;1095;50.992;6.798;2022-09-04T06:36:37;101025.34;;;19.65;88.08
2178;BME280;1095;50.992;6.798;2022-09-04T06:42:09;101020.53;;;20.06;85.35
2178;BME280;1095;50.992;6.798;2022-09-04T06:44:52;101031.56;;;20.16;85.55
2178;BME280;1095;50.992;6.798;2022-09-04T06:47:29;101029.84;;;20.42;85.17
2178;BME280;1095;50.992;6.798;2022-09-04T06:50:16;101039.19;;;21.27;81.94
2178;BME280;1095;50.992;6.798;2022-09-04T06:52:54;101046.47;;;22.43;77.38
2178;BME280;1095;50.992;6.798;2022-09-04T06:55:28;101050.59;;;23.17;74.15
2178;BME280;1095;50.992;6.798;2022-09-04T06:58:09;101045.69;;;22.91;74.34
2178;BME280;1095;50.992;6.798;2022-09-04T07:00:46;101069.06;;;23.72;71.47
2178;BME280;1095;50.992;6.798;2022-09-04T07:03:40;101058.97;;;23.09;71.43
2178;BME280;1095;50.992;6.798;2022-09-04T07:06:15;101047.06;;;22.63;74.26
2178;BME280;1095;50.992;6.798;2022-09-04T07:08:55;101040.88;;;22.33;74.92
2178;BME280;1095;50.992;6.798;2022-09-04T07:11:36;101045.50;;;23.04;74.85
2178;BME280;1095;50.992;6.798;2022-09-04T07:17:13;101073.56;;;24.18;69.22
2178;BME280;1095;50.992;6.798;2022-09-04T07:19:53;101058.31;;;24.19;68.46
2178;BME280;1095;50.992;6.798;2022-09-04T07:22:45;101062.59;;;22.84;72.99
2178;BME280;1095;50.992;6.798;2022-09-04T07:25:19;101072.91;;;23.11;72.70
2178;BME280;1095;50.992;6.798;2022-09-04T07:28:08;101063.19;;;22.87;72.95
2178;BME280;1095;50.992;6.798;2022-09-04T07:30:41;101067.81;;;22.61;74.03
2178;BME280;1095;50.992;6.798;2022-09-04T07:33:11;101077.75;;;23.02;73.97
2178;BME280;1095;50.992;6.798;2022-09-04T07:35:43;101080.34;;;23.86;70.58
2178;BME280;1095;50.992;6.798;2022-09-04T07:38:18;101088.81;;;23.71;71.25
2178;BME280;1095;50.992;6.798;2022-09-04T07:40:52;101085.31;;;24.29;69.22
2178;BME280;1095;50.992;6.798;2022-09-04T07:43:29;101076.59;;;23.63;70.09
2178;BME280;1095;50.992;6.798;2022-09-04T07:46:10;101083.31;;;24.36;68.74
2178;BME280;1095;50.992;6.798;2022-09-04T07:48:40;101081.50;;;24.65;67.79
2178;BME280;1095;50.992;6.798;2022-09-04T07:51:13;101085.94;;;24.59;67.86
2178;BME280;1095;50.992;6.798;2022-09-04T07:53:57;101084.75;;;24.27;68.75
2178;BME280;1095;50.992;6.798;2022-09-04T07:56:45;101081.72;;;24.63;66.79
2178;BME280;1095;50.992;6.798;2022-09-04T07:59:41;101094.47;;;24.56;67.01
2178;BME280;1095;50.992;6.798;2022-09-04T08:02:25;101073.88;;;25.81;63.97
2178;BME280;1095;50.992;6.798;2022-09-04T08:05:22;101082.41;;;25.61;63.84
2178;BME280;1095;50.992;6.798;2022-09-04T08:11:28;101084.50;;;25.59;63.76
2178;BME280;1095;50.992;6.798;2022-09-04T08:14:10;101085.31;;;26.53;62.24
2178;BME280;1095;50.992;6.798;2022-09-04T08:16:40;101087.91;;;26.26;63.15
2178;BME280;1095;50.992;6.798;2022-09-04T08:19:28;101096.41;;;26.01;63.18
2178;BME280;1095;50.992;6.798;2022-09-04T08:21:59;101096.69;;;27.09;60.08
2178;BME280;1095;50.992;6.798;2022-09-04T08:25:01;101092.22;;;26.44;61.38
2178;BME280;1095;50.992;6.798;2022-09-04T08:27:53;101097.59;;;26.49;61.89
2178;BME280;1095;50.992;6.798;2022-09-04T08:30:29;101090.44;;;25.94;63.10
2178;BME280;1095;50.992;6.798;2022-09-04T08:35:58;101093.56;;;26.68;61.88
2178;BME280;1095;50.992;6.798;2022-09-04T08:38:45;101097.22;;;27.38;60.45
2178;BME280;1095;50.992;6.798;2022-09-04T08:48:13;101104.28;;;27.49;58.89
2178;BME280;1095;50.992;6.798;2022-09-04T08:54:03;101111.91;;;26.33;61.65
2178;BME280;1095;50.992;6.798;2022-09-04T08:56:35;101108.38;;;26.98;60.99
2178;BME280;1095;50.992;6.798;2022-09-04T09:05:33;101107.31;;;26.99;59.92
2178;BME280;1095;50.992;6.798;2022-09-04T09:08:23;101098.78;;;26.58;60.13
2178;BME280;1095;50.992;6.798;2022-09-04T09:11:41;101105.69;;;27.57;58.47
2178;BME280;1095;50.992;6.798;2022-09-04T09:17:35;101107.78;;;26.69;61.03
2178;BME280;1095;50.992;6.798;2022-09-04T09:20:23;101105.03;;;27.71;58.41
2178;BME280;1095;50.992;6.798;2022-09-04T09:23:17;101102.34;;;27.71;57.91
2178;BME280;1095;50.992;6.798;2022-09-04T09:25:49;101099.91;;;27.70;58.26
2178;BME280;1095;50.992;6.798;2022-09-04T09:28:59;101099.63;;;26.37;61.03
2178;BME280;1095;50.992;6.798;2022-09-04T09:32:22;101094.66;;;26.72;60.65
2178;BME280;1095;50.992;6.798;2022-09-04T09:35:33;101090.94;;;27.00;59.87
2178;BME280;1095;50.992;6.798;2022-09-04T09:38:45;101073.25;;;26.77;60.39
2178;BME280;1095;50.992;6.798;2022-09-04T09:41:55;101072.75;;;26.59;61.45
2178;BME280;1095;50.992;6.798;2022-09-04T09:51:22;101084.66;;;26.90;59.61
2178;BME280;1095;50.992;6.798;2022-09-04T09:54:24;101072.91;;;26.96;59.96
2178;BME280;1095;50.992;6.798;2022-09-04T09:57:25;101071.06;;;26.74;60.30
2178;BME280;1095;50.992;6.798;2022-09-04T10:00:09;101081.53;;;26.98;59.88
2178;BME280;1095;50.992;6.798;2022-09-04T10:03:07;101080.88;;;27.13;59.52
2178;BME280;1095;50.992;6.798;2022-09-04T10:08:51;101077.44;;;26.25;62.25
2178;BME280;1095;50.992;6.798;2022-09-04T10:12:10;101084.84;;;25.96;62.76
2178;BME280;1095;50.992;6.798;2022-09-04T10:15:21;101076.78;;;25.96;62.40
2178;BME280;1095;50.992;6.798;2022-09-04T10:18:13;101078.06;;;26.54;60.93
2178;BME280;1095;50.992;6.798;2022-09-04T10:24:05;101069.16;;;26.48;59.87
2178;BME280;1095;50.992;6.798;2022-09-04T10:29:57;101078.88;;;26.76;60.58
2178;BME280;1095;50.992;6.798;2022-09-04T10:32:57;101088.34;;;27.37;58.74
2178;BME280;1095;50.992;6.798;2022-09-04T10:35:36;101079.38;;;27.59;58.11
2178;BME280;1095;50.992;6.798;2022-09-04T10:41:26;101082.13;;;27.32;57.11
2178;BME280;1095;50.992;6.798;2022-09-04T10:44:20;101076.34;;;27.18;57.81
2178;BME280;1095;50.992;6.798;2022-09-04T10:47:00;101085.56;;;27.27;57.78
2178;BME280;1095;50.992;6.798;2022-09-04T10:49:45;101072.25;;;27.42;57.70
2178;BME280;1095;50.992;6.798;2022-09-04T10:52:41;101082.84;;;27.96;55.51
2178;BME280;1095;50.992;6.798;2022-09-04T10:55:19;101083.38;;;28.46;54.34
2178;BME280;1095;50.992;6.798;2022-09-04T10:58:05;101084.22;;;28.56;55.21
2178;BME280;1095;50.992;6.798;2022-09-04T11:00:41;101085.81;;;28.52;55.60
2178;BME280;1095;50.992;6.798;2022-09-04T11:03:41;101085.81;;;28.47;55.73
2178;BME280;1095;50.992;6.798;2022-09-04T11:06:36;101082.00;;;27.86;56.13
2178;BME280;1095;50.992;6.798;2022-09-04T11:18:32;101071.50;;;27.89;55.15
2178;BME280;1095;50.992;6.798;2022-09-04T11:21:56;101066.25;;;26.76;57.22
2178;BME280;1095;50.992;6.798;2022-09-04T11:30:53;101060.88;;;27.62;53.69
2178;BME280;1095;50.992;6.798;2022-09-04T11:34:03;101074.50;;;27.88;53.24
2178;BME280;1095;50.992;6.798;2022-09-04T11:42:46;101058.88;;;27.16;55.45
2178;BME280;1095;50.992;6.798;2022-09-04T11:45:39;101063.88;;;27.07;54.98
2178;BME280;1095;50.992;6.798;2022-09-04T11:48:26;101067.13;;;27.09;55.90
2178;BME280;1095;50.992;6.798;2022-09-04T11:51:35;101056.06;;;27.32;54.83
2178;BME280;1095;50.992;6.798;2022-09-04T11:57:21;101063.69;;;27.14;55.40
2178;BME280;1095;50.992;6.798;2022-09-04T12:00:05;101066.50;;;27.29;55.28
2178;BME280;1095;50.992;6.798;2022-09-04T12:03:10;101074.16;;;27.47;54.71
2178;BME280;1095;50.992;6.798;2022-09-04T12:05:53;101074.50;;;27.56;54.06
2178;BME280;1095;50.992;6.798;2022-09-04T12:08:49;101071.19;;;27.43;55.06
2178;BME280;1095;50.992;6.798;2022-09-04T12:11:56;101065.09;;;27.21;54.61
2178;BME280;1095;50.992;6.798;2022-09-04T12:14:48;101073.72;;;27.23;54.58
2178;BME280;1095;50.992;6.798;2022-09-04T12:17:40;101073.22;;;27.26;55.09
2178;BME280;1095;50.992;6.798;2022-09-04T12:20:40;101076.75;;;27.32;53.41
2178;BME280;1095;50.992;6.798;2022-09-04T12:23:32;101077.03;;;27.35;54.17
2178;BME280;1095;50.992;6.798;2022-09-04T12:26:27;101076.06;;;27.52;53.88
2178;BME280;1095;50.992;6.798;2022-09-04T12:32:37;101069.63;;;27.85;52.87
2178;BME280;1095;50.992;6.798;2022-09-04T12:35:27;101062.50;;;28.16;52.22
2178;BME280;1095;50.992;6.798;2022-09-04T12:38:38;101061.91;;;28.03;52.69
2178;BME280;1095;50.992;6.798;2022-09-04T12:41:10;101069.19;;;27.61;52.60
2178;BME280;1095;50.992;6.798;2022-09-04T12:43:51;101071.22;;;27.49;52.91
2178;BME280;1095;50.992;6.798;2022-09-04T12:46:32;101068.22;;;27.77;52.38
2178;BME280;1095;50.992;6.798;2022-09-04T12:49:17;101068.16;;;27.67;53.49
2178;BME280;1095;50.992;6.798;2022-09-04T12:51:59;101060.50;;;27.86;53.25
2178;BME280;1095;50.992;6.798;2022-09-04T12:54:37;101070.66;;;28.26;52.25
2178;BME280;1095;50.992;6.798;2022-09-04T12:57:20;101072.41;;;28.67;51.89
2178;BME280;1095;50.992;6.798;2022-09-04T13:00:04;101068.59;;;28.48;52.02
2178;BME280;1095;50.992;6.798;2022-09-04T13:02:35;101067.31;;;28.08;51.95
2178;BME280;1095;50.992;6.798;2022-09-04T13:05:22;101066.53;;;28.13;52.00
2178;BME280;1095;50.992;6.798;2022-09-04T13:08:04;101061.78;;;28.25;50.39
2178;BME280;1095;50.992;6.798;2022-09-04T13:10:52;101065.94;;;28.58;50.12
2178;BME280;1095;50.992;6.798;2022-09-04T13:13:31;101068.16;;;28.92;49.01
2178;BME280;1095;50.992;6.798;2022-09-04T13:16:08;101071.72;;;29.13;48.57
2178;BME280;1095;50.992;6.798;2022-09-04T13:18:49;101074.81;;;28.59;48.86
2178;BME280;1095;50.992;6.798;2022-09-04T13:21:37;101075.66;;;28.69;47.76
2178;BME280;1095;50.992;6.798;2022-09-04T13:24:17;101082.44;;;28.87;47.90
2178;BME280;1095;50.992;6.798;2022-09-04T13:26:54;101079.47;;;28.84;47.46
2178;BME280;1095;50.992;6.798;2022-09-04T13:29:33;101067.34;;;28.81;47.06
2178;BME280;1095;50.992;6.798;2022-09-04T13:32:26;101083.25;;;28.83;49.11
2178;BME280;1095;50.992;6.798;2022-09-04T13:35:07;101074.06;;;28.84;48.46
2178;BME280;1095;50.992;6.798;2022-09-04T13:37:45;101083.00;;;29.04;46.92
2178;BME280;1095;50.992;6.798;2022-09-04T13:40:34;101080.59;;;29.38;46.15
2178;BME280;1095;50.992;6.798;2022-09-04T13:46:05;101085.16;;;29.02;46.20
2178;BME280;1095;50.992;6.798;2022-09-04T13:48:40;101071.44;;;29.24;46.45
2178;BME280;1095;50.992;6.798;2022-09-04T13:51:10;101079.00;;;29.48;45.54
2178;BME280;1095;50.992;6.798;2022-09-04T13:53:53;101080.09;;;29.52;45.10
2178;BME280;1095;50.992;6.798;2022-09-04T13:56:27;101083.31;;;29.49;47.04
2178;BME280;1095;50.992;6.798;2022-09-04T13:58:58;101078.44;;;29.35;45.62
2178;BME280;1095;50.992;6.798;2022-09-04T14:01:36;101084.66;;;29.56;45.29
2178;BME280;1095;50.992;6.798;2022-09-04T14:04:13;101081.16;;;29.51;45.22
2178;BME280;1095;50.992;6.798;2022-09-04T14:06:45;101077.88;;;29.33;46.03
2178;BME280;1095;50.992;6.798;2022-09-04T14:09:14;101076.31;;;29.27;45.77
2178;BME280;1095;50.992;6.798;2022-09-04T14:11:56;101083.59;;;29.52;45.24
2178;BME280;1095;50.992;6.798;2022-09-04T14:17:36;101078.94;;;28.87;46.78
2178;BME280;1095;50.992;6.798;2022-09-04T14:20:11;101069.19;;;28.65;47.66
2178;BME280;1095;50.992;6.798;2022-09-04T14:22:44;101074.13;;;29.34;47.40
2178;BME280;1095;50.992;6.798;2022-09-04T14:25:19;101066.53;;;29.87;45.25
2178;BME280;1095;50.992;6.798;2022-09-04T14:27:54;101054.63;;;29.98;44.72
2178;BME280;1095;50.992;6.798;2022-09-04T14:30:30;101044.94;;;29.92;44.78
2178;BME280;1095;50.992;6.798;2022-09-04T14:33:07;101061.13;;;30.02;44.54
2178;BME280;1095;50.992;6.798;2022-09-04T14:35:42;101072.47;;;29.79;45.42
2178;BME280;1095;50.992;6.798;2022-09-04T14:41:34;101062.78;;;29.37;46.00
2178;BME280;1095;50.992;6.798;2022-09-04T14:44:21;101074.09;;;28.94;45.97
2178;BME280;1095;50.992;6.798;2022-09-04T14:47:01;101076.25;;;28.87;46.58
2178;BME280;1095;50.992;6.798;2022-09-04T14:49:40;101069.50;;;28.84;46.61
2178;BME280;1095;50.992;6.798;2022-09-04T14:52:12;101071.16;;;29.11;46.17
2178;BME280;1095;50.992;6.798;2022-09-04T14:54:44;101064.81;;;28.49;46.42
2178;BME280;1095;50.992;6.798;2022-09-04T14:57:20;101063.88;;;28.96;46.69
2178;BME280;1095;50.992;6.798;2022-09-04T15:00:04;101062.66;;;28.51;48.05
2178;BME280;1095;50.992;6.798;2022-09-04T15:02:36;101059.44;;;28.49;48.14
2178;BME280;1095;50.992;6.798;2022-09-04T15:05:15;101061.94;;;28.71;47.74
2178;BME280;1095;50.992;6.798;2022-09-04T15:07:53;101066.81;;;28.17;48.69
2178;BME280;1095;50.992;6.798;2022-09-04T15:10:24;101066.81;;;28.17;48.66
2178;BME280;1095;50.992;6.798;2022-09-04T15:13:04;101061.38;;;28.01;49.15
2178;BME280;1095;50.992;6.798;2022-09-04T15:15:38;101057.69;;;28.18;48.93
2178;BME280;1095;50.992;6.798;2022-09-04T15:18:09;101060.88;;;28.09;48.44
2178;BME280;1095;50.992;6.798;2022-09-04T15:20:47;101056.97;;;27.80;48.67
2178;BME280;1095;50.992;6.798;2022-09-04T15:23:19;101058.22;;;27.67;48.94
2178;BME280;1095;50.992;6.798;2022-09-04T15:25:48;101051.28;;;27.44;49.47
2178;BME280;1095;50.992;6.798;2022-09-04T15:28:21;101044.94;;;27.56;49.60
2178;BME280;1095;50.992;6.798;2022-09-04T15:31:01;101056.00;;;27.59;49.14
2178;BME280;1095;50.992;6.798;2022-09-04T15:33:30;101049.31;;;27.62;49.22
2178;BME280;1095;50.992;6.798;2022-09-04T15:36:04;101056.72;;;27.50;48.89
2178;BME280;1095;50.992;6.798;2022-09-04T15:38:34;101052.75;;;27.57;49.28
2178;BME280;1095;50.992;6.798;2022-09-04T15:41:13;101048.59;;;27.44;49.28
2178;BME280;1095;50.992;6.798;2022-09-04T15:43:47;101051.47;;;27.65;49.25
2178;BME280;1095;50.992;6.798;2022-09-04T15:46:27;101047.69;;;27.61;49.11
2178;BME280;1095;50.992;6.798;2022-09-04T15:49:01;101059.94;;;27.52;48.95
2178;BME280;1095;50.992;6.798;2022-09-04T15:51:39;101048.09;;;27.48;48.78
2178;BME280;1095;50.992;6.798;2022-09-04T15:54:45;101057.75;;;27.43;49.08
2178;BME280;1095;50.992;6.798;2022-09-04T15:57:18;101058.41;;;27.24;49.46
2178;BME280;1095;50.992;6.798;2022-09-04T15:59:51;101046.03;;;27.23;49.88
2178;BME280;1095;50.992;6.798;2022-09-04T16:02:28;101049.06;;;27.31;49.58
2178;BME280;1095;50.992;6.798;2022-09-04T16:05:04;101050.72;;;27.37;49.41
2178;BME280;1095;50.992;6.798;2022-09-04T16:07:40;101052.59;;;27.37;49.23
2178;BME280;1095;50.992;6.798;2022-09-04T16:10:15;101057.69;;;27.33;49.28